Sunday, April 22, 2018, 5:46 PM EDT
Back to Local

KUUU, Newport State Airport

Location: Middletown, RI, United States Lat: 41.533
Local Time: 5:46 PM EDT (21:46 GMT) Lon: -71.283
Time Zone: US/Eastern Elev: 170 ft

Show me the last for .
Show Coded

Time T Td Feel RH Dir Speed Gust Alt SLP Vis Weather Sky Remarks
2018-04-22 16:53 54 23 - 29 200° 13 17 30.31 30.31 10 CLR None
2018-04-22 15:53 55 24 - 29 200° 12 21 30.31 30.31 10 CLR None
2018-04-22 14:53 55 22 - 27 210° 9 17 30.32 30.32 10 CLR None
2018-04-22 13:53 56 27 - 32 190° 13 - 30.33 30.33 10 CLR 6-hr Min Temp (2pm): 46.0°F
6-hr Max Temp (2pm): 57.9°F
2018-04-22 12:53 58 18 - 20 Variable 5 - 30.34 30.34 10 CLR None
2018-04-22 11:53 57 20 - 23 340° 8 - 30.35 30.35 10 CLR None
2018-04-22 10:53 55 21 - 26 Variable 6 - 30.36 30.35 10 CLR None
2018-04-22 09:53 53 21 - 28 300° 6 - 30.36 30.36 10 CLR None
2018-04-22 08:53 50 24 46 35 320° 10 - 30.36 30.36 10 CLR None
2018-04-22 07:53 46 27 42 47 320° 7 - 30.35 30.35 10 CLR 6-hr Min Temp (8am): 33.1°F
6-hr Max Temp (8am): 46.0°F
2018-04-22 06:53 39 29 - 66 - Calm - 30.35 30.35 10 CLR None
2018-04-22 05:53 35 27 - 72 - Calm - 30.33 30.33 10 CLR None
2018-04-22 04:53 37 26 - 64 - Calm - 30.32 30.32 10 CLR None
2018-04-22 03:53 40 25 38 54 350° 3 - 30.32 30.32 10 CLR None
2018-04-22 02:53 41 25 37 52 10° 6 - 30.31 30.31 10 CLR None
2018-04-22 01:53 41 27 38 57 350° 5 - 30.31 30.31 10 CLR 6-hr Min Temp (2am): 39.0°F
6-hr Max Temp (2am): 48.0°F
2018-04-22 00:53 44 27 43 50 340° 3 - 30.31 30.30 10 CLR 24-hr Min Temp (1am): 37.0°F
24-hr Max Temp (1am): 57.9°F
2018-04-21 23:53 45 27 43 48 340° 5 - 30.30 30.29 10 CLR None
2018-04-21 22:53 48 28 45 45 300° 6 - 30.28 30.27 10 CLR None
2018-04-21 21:53 45 32 - 60 - Calm - 30.27 30.27 10 CLR None
2018-04-21 20:53 45 35 - 68 - Calm - 30.26 30.25 10 CLR None
2018-04-21 19:53 47 35 44 63 200° 7 - 30.24 30.23 10 CLR 6-hr Min Temp (8pm): 46.9°F
6-hr Max Temp (8pm): 57.9°F
2018-04-21 18:53 48 35 44 60 190° 8 - 30.21 30.21 10 CLR None
2018-04-21 17:53 50 34 46 53 200° 9 - 30.20 30.20 10 CLR None

Support USWX by starting your Amazon purchase here.